Terminal Aerodrome Forecast
Issued by NWS

Home | Current Version | Previous Version | Text Only | Print | Product List | Glossary On
Versions: 1 2 3 4 5 6 7 8 9 10 11 12 13
000
FTUS45 KPSR 261512 AAA
TAFIWA
TAF AMD
KIWA 261512Z 2615/2712 12006KT P6SM SCT100 BKN180
     FM261800 25008KT P6SM BKN090 BKN120
     FM270100 26007KT P6SM SCT080
     FM270500 13006KT P6SM SCT060 SCT250=

USA.gov is the U.S. government's official web portal to all federal, state and local government web resources and services.